Time;durP1;ratioP1;P1;durP2;ratioP2;P2;SDS_P1;SDS_P2;PMS_P1;PMS_P2;Temp;Humidity;BMP_temperature;BMP_pressure;BME280_temperature;BME280_humidity;BME280_pressure;Samples;Min_cycle;Max_cycle;Signal;HPM_P1;HPM_P2
2022/10/14 00:00:46;;;;;;;44.93;27.00;;;;;;;7.27;89.61;99216.83;2123581;84;21008;-79
2022/10/14 00:03:47;;;;;;;50.50;26.07;;;;;;;7.18;89.44;99206.16;2123373;84;21430;-80
2022/10/14 00:06:47;;;;;;;40.60;26.93;;;;;;;7.13;89.75;99201.23;2123491;84;20955;-79
2022/10/14 00:09:47;;;;;;;49.20;29.67;;;;;;;7.14;90.48;99206.48;2123509;84;20987;-80
2022/10/14 00:12:49;;;;;;;48.63;29.03;;;;;;;7.18;90.85;99197.95;2123554;84;21294;-80
2022/10/14 00:15:48;;;;;;;45.10;29.10;;;;;;;7.22;90.96;99199.80;2123502;84;21281;-80
2022/10/14 00:18:49;;;;;;;50.73;29.30;;;;;;;7.24;90.85;99195.95;2123517;84;20979;-80
2022/10/14 00:21:49;;;;;;;45.10;28.93;;;;;;;7.24;90.81;99192.95;2123528;84;20999;-80
2022/10/14 00:24:49;;;;;;;51.70;29.30;;;;;;;7.24;90.68;99189.47;2123665;84;20979;-80
2022/10/14 00:27:50;;;;;;;52.70;29.27;;;;;;;7.25;91.09;99188.62;2123617;84;20987;-80
2022/10/14 00:30:50;;;;;;;49.23;29.87;;;;;;;7.25;91.00;99193.83;2123656;84;20979;-80
2022/10/14 00:33:51;;;;;;;50.27;29.53;;;;;;;7.24;90.91;99196.84;2123646;84;21351;-81
2022/10/14 00:36:51;;;;;;;56.70;28.53;;;;;;;7.22;90.80;99188.54;2123499;84;20975;-80
2022/10/14 00:39:52;;;;;;;48.97;28.10;;;;;;;7.19;90.82;99194.94;2123600;84;21018;-81
2022/10/14 00:42:52;;;;;;;51.67;29.50;;;;;;;7.16;90.70;99198.31;2123403;84;21355;-80
2022/10/14 00:45:52;;;;;;;45.07;28.73;;;;;;;7.15;90.68;99192.66;2123308;84;20963;-79
2022/10/14 00:48:53;;;;;;;49.30;27.47;;;;;;;7.15;90.50;99198.27;2123465;84;20963;-80
2022/10/14 00:51:53;;;;;;;43.57;26.63;;;;;;;7.11;90.63;99191.22;2123263;84;21026;-79
2022/10/14 00:54:54;;;;;;;45.90;27.80;;;;;;;7.08;90.48;99187.23;2123714;84;21307;-80
2022/10/14 00:57:54;;;;;;;44.60;27.17;;;;;;;7.03;90.49;99179.30;2124063;84;20991;-80
2022/10/14 01:00:55;;;;;;;43.60;27.43;;;;;;;6.98;90.70;99176.56;2124158;84;20959;-79
2022/10/14 01:03:55;;;;;;;46.90;28.23;;;;;;;6.99;90.84;99170.55;2123896;84;21015;-80
2022/10/14 01:06:55;;;;;;;43.27;27.63;;;;;;;7.01;91.33;99171.47;2123552;84;20972;-81
2022/10/14 01:09:57;;;;;;;50.17;27.57;;;;;;;7.05;91.24;99161.19;2123686;84;21003;-81
2022/10/14 01:12:56;;;;;;;53.53;28.37;;;;;;;7.09;91.46;99165.22;2123182;84;21650;-81
2022/10/14 01:15:56;;;;;;;47.00;26.97;;;;;;;7.15;91.46;99163.23;2123430;84;20956;-80
2022/10/14 01:18:57;;;;;;;45.67;28.70;;;;;;;7.18;91.63;99154.23;2123571;84;20987;-80
2022/10/14 01:21:57;;;;;;;43.70;29.00;;;;;;;7.24;91.96;99155.71;2123556;84;21050;-80
2022/10/14 01:24:58;;;;;;;48.17;30.33;;;;;;;7.31;91.84;99162.84;2123489;84;21374;-79
2022/10/14 01:27:58;;;;;;;50.87;30.43;;;;;;;7.38;91.98;99170.41;2123888;84;20960;-81
2022/10/14 01:30:59;;;;;;;43.60;29.43;;;;;;;7.38;91.75;99164.80;2123503;84;20980;-80
2022/10/14 01:33:59;;;;;;;45.20;28.53;;;;;;;7.44;91.83;99158.89;2123579;84;20975;-79
2022/10/14 01:36:59;;;;;;;50.20;30.70;;;;;;;7.49;91.93;99156.89;2123605;84;20940;-80
2022/10/14 01:40:00;;;;;;;48.20;28.60;;;;;;;7.53;91.72;99150.95;2123537;84;21334;-80
2022/10/14 01:43:00;;;;;;;56.87;29.03;;;;;;;7.58;91.80;99141.57;2123382;84;21015;-80
2022/10/14 01:46:01;;;;;;;48.77;29.40;;;;;;;7.60;91.62;99152.00;2123589;84;21019;-80
2022/10/14 01:49:01;;;;;;;48.90;29.53;;;;;;;7.63;91.62;99151.67;2123482;84;20947;-80
2022/10/14 01:52:01;;;;;;;46.07;28.53;;;;;;;7.70;91.49;99157.92;2122366;84;21054;-80
2022/10/14 01:55:02;;;;;;;49.43;28.50;;;;;;;7.73;91.21;99146.73;2115962;84;20987;-80
2022/10/14 01:58:02;;;;;;;53.17;29.77;;;;;;;7.75;91.23;99147.23;2116433;84;20972;-80
2022/10/14 02:01:03;;;;;;;53.13;31.43;;;;;;;7.77;91.18;99149.46;2116194;84;21340;-79
2022/10/14 02:04:03;;;;;;;54.17;29.07;;;;;;;7.79;91.00;99150.80;2116308;84;20968;-80
2022/10/14 02:07:03;;;;;;;45.70;28.80;;;;;;;7.83;90.95;99145.77;2116219;84;21031;-81
2022/10/14 02:10:04;;;;;;;47.90;28.47;;;;;;;7.86;90.97;99139.34;2116405;84;21335;-80
2022/10/14 02:13:04;;;;;;;46.50;28.83;;;;;;;7.88;90.87;99137.67;2116320;84;21015;-80
2022/10/14 02:16:05;;;;;;;45.40;28.07;;;;;;;7.90;90.60;99140.31;2116529;84;20940;-80
2022/10/14 02:19:05;;;;;;;46.80;28.70;;;;;;;7.90;90.58;99137.71;2116373;84;21027;-80
2022/10/14 02:22:05;;;;;;;43.53;27.67;;;;;;;7.91;90.54;99131.25;2116062;84;20992;-80
2022/10/14 02:25:06;;;;;;;50.77;28.47;;;;;;;7.90;90.46;99133.81;2116461;84;20940;-80
2022/10/14 02:28:07;;;;;;;85.47;29.77;;;;;;;7.90;90.38;99131.21;2115972;84;21039;-80
2022/10/14 02:31:07;;;;;;;52.40;28.40;;;;;;;7.89;90.42;99117.76;2116427;84;21015;-80
2022/10/14 02:34:07;;;;;;;58.73;30.23;;;;;;;7.89;90.51;99130.33;2116381;84;20975;-79
2022/10/14 02:37:07;;;;;;;70.80;29.97;;;;;;;7.90;90.43;99122.12;2116687;84;20991;-81
2022/10/14 02:40:08;;;;;;;47.17;29.90;;;;;;;7.93;90.50;99115.70;2116433;84;21461;-81
2022/10/14 02:43:09;;;;;;;48.13;29.30;;;;;;;7.95;90.44;99114.91;2116254;84;21386;-80
2022/10/14 02:46:09;;;;;;;54.80;29.60;;;;;;;7.96;90.30;99117.96;2116194;84;20964;-81
2022/10/14 02:49:09;;;;;;;49.67;29.47;;;;;;;7.99;90.26;99121.06;2116287;84;20992;-79
2022/10/14 02:52:10;;;;;;;46.97;28.67;;;;;;;7.98;90.06;99119.30;2116190;84;21051;-80
2022/10/14 02:55:10;;;;;;;44.50;28.03;;;;;;;7.97;89.97;99114.52;2116275;84;21402;-80
2022/10/14 02:58:10;;;;;;;47.13;28.53;;;;;;;7.95;89.97;99117.92;2116392;84;21309;-80
2022/10/14 03:01:11;;;;;;;76.20;30.73;;;;;;;7.95;89.87;99120.10;2115930;84;21032;-80
2022/10/14 03:04:11;;;;;;;44.83;28.30;;;;;;;7.92;89.87;99120.44;2116170;84;21034;-80
2022/10/14 03:07:12;;;;;;;45.03;30.03;;;;;;;7.88;89.79;99121.20;2116313;84;20976;-80
2022/10/14 03:10:12;;;;;;;45.97;29.40;;;;;;;7.84;89.90;99124.13;2116223;84;21277;-79
2022/10/14 03:13:12;;;;;;;50.97;28.83;;;;;;;7.81;89.85;99119.27;2116134;84;20956;-80
2022/10/14 03:16:13;;;;;;;41.73;28.47;;;;;;;7.77;89.82;99122.17;2116350;84;20968;-80
2022/10/14 03:19:13;;;;;;;50.27;29.60;;;;;;;7.72;89.74;99118.98;2116116;84;21435;-79
2022/10/14 03:22:14;;;;;;;58.80;28.67;;;;;;;7.65;89.81;99115.34;2116106;84;21007;-81
2022/10/14 03:25:15;;;;;;;42.33;27.23;;;;;;;7.62;89.92;99113.54;2116093;84;21009;-80
2022/10/14 03:28:15;;;;;;;46.23;28.43;;;;;;;7.57;89.93;99120.33;2115696;84;21383;-78
2022/10/14 03:31:15;;;;;;;47.90;29.00;;;;;;;7.53;90.15;99110.69;2115990;84;20975;-79
2022/10/14 03:34:16;;;;;;;52.33;28.97;;;;;;;7.50;90.33;99102.81;2116106;84;20951;-78
2022/10/14 03:37:16;;;;;;;46.40;30.77;;;;;;;7.48;90.29;99102.30;2116045;84;20957;-79
2022/10/14 03:40:16;;;;;;;50.63;28.20;;;;;;;7.51;90.68;99103.69;2115470;84;20936;-79
2022/10/14 03:43:17;;;;;;;48.30;29.00;;;;;;;7.53;90.76;99099.00;2115154;84;21398;-79
2022/10/14 03:46:17;;;;;;;47.43;28.07;;;;;;;7.56;90.70;99094.30;2115498;84;21015;-80
2022/10/14 03:49:18;;;;;;;50.10;31.37;;;;;;;7.54;90.66;99096.86;2115845;84;21004;-82
2022/10/14 03:52:18;;;;;;;59.03;31.67;;;;;;;7.53;90.80;99101.59;2115853;84;21402;-81
2022/10/14 03:55:18;;;;;;;54.50;32.67;;;;;;;7.56;90.94;99098.20;2123023;84;21010;-80
2022/10/14 03:58:19;;;;;;;50.17;29.73;;;;;;;7.61;91.01;99093.59;2122836;84;21050;-79
2022/10/14 04:01:19;;;;;;;51.57;30.40;;;;;;;7.66;90.90;99097.20;2122973;84;20996;-81
2022/10/14 04:04:20;;;;;;;46.23;29.63;;;;;;;7.68;90.85;99094.22;2122636;84;21056;-84
2022/10/14 04:07:23;;;;;;;47.50;30.30;;;;;;;7.74;90.75;99083.53;2122226;84;21395;-82
2022/10/14 04:10:23;;;;;;;50.17;31.17;;;;;;;7.75;90.70;99077.50;2122617;84;20975;-80
2022/10/14 04:13:24;;;;;;;97.83;33.47;;;;;;;7.75;90.72;99078.80;2121497;84;20955;-80
2022/10/14 04:16:24;;;;;;;61.17;31.30;;;;;;;7.77;90.81;99081.02;2122392;84;20960;-80
2022/10/14 04:19:24;;;;;;;52.30;31.07;;;;;;;7.80;90.69;99078.50;2121917;84;20991;-81
2022/10/14 04:22:25;;;;;;;58.47;33.63;;;;;;;7.83;90.66;99077.31;2121388;84;21051;-81
2022/10/14 04:25:25;;;;;;;52.90;32.47;;;;;;;7.85;90.61;99081.70;2121607;84;20967;-80
2022/10/14 04:28:26;;;;;;;49.83;30.57;;;;;;;7.88;90.50;99080.91;2121982;84;21722;-81
2022/10/14 04:31:26;;;;;;;53.57;30.93;;;;;;;7.90;90.42;99081.41;2122232;84;20959;-81
2022/10/14 04:34:26;;;;;;;61.53;31.57;;;;;;;7.93;90.36;99080.61;2122554;84;20992;-79
2022/10/14 04:37:28;;;;;;;75.63;32.43;;;;;;;7.93;90.31;99076.29;2122338;84;21627;-82
2022/10/14 04:40:27;;;;;;;51.30;30.63;;;;;;;7.94;90.30;99078.05;2120863;84;20963;-81
2022/10/14 04:43:28;;;;;;;59.13;31.20;;;;;;;7.95;90.25;99076.33;2120732;84;20971;-79
2022/10/14 04:46:30;;;;;;;59.67;31.80;;;;;;;7.96;90.23;99078.09;2120551;84;21710;-81
2022/10/14 04:49:28;;;;;;;48.83;32.00;;;;;;;7.99;90.30;99071.67;2119789;84;20932;-82
2022/10/14 04:52:29;;;;;;;59.43;35.17;;;;;;;8.05;90.32;99074.42;2120702;84;21042;-80
2022/10/14 04:55:29;;;;;;;46.17;30.67;;;;;;;8.05;90.14;99072.25;2121115;84;20963;-79
2022/10/14 04:58:30;;;;;;;87.63;33.63;;;;;;;8.09;90.21;99067.16;2121228;84;21648;-78
2022/10/14 05:01:30;;;;;;;100.23;34.97;;;;;;;8.13;90.13;99065.09;2120645;84;21641;-78
2022/10/14 05:04:30;;;;;;;53.60;31.77;;;;;;;8.16;90.14;99069.08;2120380;84;21026;-79
2022/10/14 05:07:31;;;;;;;51.87;31.77;;;;;;;8.20;89.64;99057.03;2120928;84;21004;-79
2022/10/14 05:10:31;;;;;;;53.77;31.67;;;;;;;8.20;89.64;99057.03;2121549;84;20992;-77
2022/10/14 05:13:32;;;;;;;54.20;30.97;;;;;;;8.20;89.83;99056.61;2120872;84;21332;-77
2022/10/14 05:16:32;;;;;;;71.00;37.67;;;;;;;8.26;89.93;99057.17;2121347;84;21379;-83
2022/10/14 05:19:32;;;;;;;79.27;49.30;;;;;;;9.07;100.00;99048.24;2122315;84;21789;-80
2022/10/14 05:22:33;;;;;;;47.07;31.83;;;;;;;11.71;96.35;99044.26;2121439;84;21018;-77
2022/10/14 05:25:33;;;;;;;52.67;32.20;;;;;;;11.68;84.81;99039.43;2122447;84;21039;-77
2022/10/14 05:28:34;;;;;;;47.20;29.47;;;;;;;10.99;82.64;99040.32;2122071;84;21647;-81
2022/10/14 05:31:34;;;;;;;58.43;30.00;;;;;;;10.45;82.43;99050.42;2122864;84;20999;-80
2022/10/14 05:34:35;;;;;;;44.73;30.47;;;;;;;10.06;82.56;99055.80;2122089;84;21011;-80
2022/10/14 05:37:35;;;;;;;45.17;30.70;;;;;;;9.76;83.09;99049.63;2121998;84;21355;-80
2022/10/14 05:40:35;;;;;;;49.13;30.37;;;;;;;9.54;83.44;99052.25;2121783;84;21015;-81
2022/10/14 05:43:36;;;;;;;74.50;31.90;;;;;;;9.34;83.98;99050.53;2121449;84;20995;-80
2022/10/14 05:46:36;;;;;;;48.47;30.50;;;;;;;9.18;84.45;99051.95;2121560;84;21439;-80
2022/10/14 05:49:37;;;;;;;52.27;32.20;;;;;;;9.11;84.81;99050.48;2121613;84;20959;-81
2022/10/14 05:52:38;;;;;;;47.70;31.50;;;;;;;9.06;85.19;99053.42;2122722;84;21065;-80
2022/10/14 05:55:37;;;;;;;51.13;31.97;;;;;;;9.01;85.36;99055.92;2115265;84;21027;-80
2022/10/14 05:58:38;;;;;;;105.07;32.43;;;;;;;9.00;85.65;99055.89;2115515;84;21348;-84
2022/10/14 06:01:38;;;;;;;78.17;32.93;;;;;;;8.97;88.83;99050.62;2114307;84;21000;-79
2022/10/14 06:04:41;;;;;;;54.70;31.50;;;;;;;9.48;86.84;99050.80;2113637;84;20987;-81
2022/10/14 06:07:39;;;;;;;55.37;32.43;;;;;;;9.37;85.61;99051.02;2113822;84;20948;-81
2022/10/14 06:10:39;;;;;;;64.63;32.73;;;;;;;9.23;85.44;99062.45;2113950;84;20979;-80
2022/10/14 06:13:40;;;;;;;54.13;32.40;;;;;;;9.15;85.60;99055.79;2112710;84;20967;-79
2022/10/14 06:16:40;;;;;;;57.90;34.63;;;;;;;9.16;85.67;99057.97;2112808;84;21473;-79
2022/10/14 06:19:41;;;;;;;67.27;41.27;;;;;;;9.18;85.69;99062.79;2112691;84;20967;-81
2022/10/14 06:22:41;;;;;;;52.33;32.43;;;;;;;9.24;85.70;99060.31;2112801;84;20964;-80
2022/10/14 06:25:41;;;;;;;56.30;34.30;;;;;;;9.35;85.58;99064.02;2112196;84;20959;-79
2022/10/14 06:28:42;;;;;;;46.03;33.00;;;;;;;9.45;85.51;99062.04;2112169;84;21420;-80
2022/10/14 06:31:42;;;;;;;55.17;32.90;;;;;;;9.58;85.47;99057.98;2113435;84;20996;-78
2022/10/14 06:34:43;;;;;;;79.97;36.20;;;;;;;9.69;85.28;99067.30;2113229;84;20956;-80
2022/10/14 06:37:43;;;;;;;46.77;33.77;;;;;;;9.73;85.10;99061.30;2113481;84;20964;-81
2022/10/14 06:40:43;;;;;;;58.70;34.37;;;;;;;9.78;84.85;99062.27;2114190;84;21336;-80
2022/10/14 06:43:44;;;;;;;49.27;33.73;;;;;;;9.78;84.95;99063.14;2114158;84;21359;-82
2022/10/14 06:46:45;;;;;;;59.77;35.77;;;;;;;9.87;84.65;99061.13;2114045;84;21048;-80
2022/10/14 06:49:45;;;;;;;87.90;35.20;;;;;;;9.92;84.76;99060.78;2114172;84;21012;-80
2022/10/14 06:52:46;;;;;;;60.43;36.63;;;;;;;10.02;84.44;99073.13;2114348;84;21351;-79
2022/10/14 06:55:46;;;;;;;52.10;33.13;;;;;;;10.16;84.24;99066.42;2121351;84;20996;-80
2022/10/14 06:58:47;;;;;;;52.07;34.73;;;;;;;10.57;83.53;99070.19;2121744;84;20987;-81
2022/10/14 07:01:47;;;;;;;55.07;35.00;;;;;;;10.57;83.53;99070.19;2122429;84;20987;-79
2022/10/14 07:04:47;;;;;;;234.47;40.10;;;;;;;10.73;83.26;99072.17;2122625;84;21400;-79
2022/10/14 07:07:48;;;;;;;299.10;49.13;;;;;;;10.90;83.03;99063.70;2122940;84;20975;-82
2022/10/14 07:10:48;;;;;;;101.18;36.93;;;;;;;11.01;82.78;99068.64;2123149;84;21006;-81
2022/10/14 07:13:49;;;;;;;72.42;34.63;;;;;;;11.13;82.36;99067.07;2122129;84;21292;-79
2022/10/14 07:16:49;;;;;;;58.63;37.77;;;;;;;11.27;82.34;99067.28;2121331;84;20955;-80
2022/10/14 07:19:50;;;;;;;57.38;34.67;;;;;;;11.34;81.85;99076.08;2121357;84;20924;-80
2022/10/14 07:22:50;;;;;;;159.50;39.38;;;;;;;11.33;81.81;99069.09;2121486;84;21082;-80
2022/10/14 07:25:50;;;;;;;55.17;34.95;;;;;;;11.34;81.54;99075.64;2121616;84;20955;-79
2022/10/14 07:28:51;;;;;;;55.67;34.00;;;;;;;11.42;81.42;99074.00;2121569;84;20936;-80
2022/10/14 07:31:51;;;;;;;57.08;34.20;;;;;;;11.55;81.00;99068.92;2121543;84;20983;-80
2022/10/14 07:34:52;;;;;;;77.67;36.33;;;;;;;11.68;80.84;99074.73;2121536;84;21287;-80
2022/10/14 07:37:52;;;;;;;55.30;35.48;;;;;;;11.79;80.66;99071.41;2121573;84;20947;-82
2022/10/14 07:40:52;;;;;;;60.73;36.25;;;;;;;11.85;80.27;99075.82;2121813;84;20943;-80
2022/10/14 07:43:53;;;;;;;56.30;36.48;;;;;;;11.82;80.08;99078.41;2121845;84;20979;-80
2022/10/14 07:46:53;;;;;;;60.23;37.17;;;;;;;11.75;79.94;99077.86;2121750;84;20983;-80
2022/10/14 07:49:54;;;;;;;53.25;36.88;;;;;;;11.72;80.16;99072.59;2121851;84;20972;-80
2022/10/14 07:52:54;;;;;;;64.03;36.98;;;;;;;11.79;80.16;99074.02;2120779;84;21395;-79
2022/10/14 07:55:54;;;;;;;64.60;41.98;;;;;;;11.88;79.96;99074.55;2113959;83;20995;-85
2022/10/14 07:58:55;;;;;;;65.42;39.42;;;;;;;11.96;79.68;99066.34;2114209;84;21003;-84
2022/10/14 08:01:55;;;;;;;54.42;37.23;;;;;;;12.05;79.52;99068.17;2114517;84;20960;-84
2022/10/14 08:04:57;;;;;;;60.38;37.17;;;;;;;12.11;79.33;99066.48;2114408;84;20999;-84
2022/10/14 08:07:56;;;;;;;54.25;36.00;;;;;;;12.13;78.92;99066.50;2113944;84;20995;-84
2022/10/14 08:10:56;;;;;;;53.60;36.45;;;;;;;12.20;78.68;99071.39;2114100;84;21429;-85
2022/10/14 08:13:57;;;;;;;49.73;36.00;;;;;;;12.22;78.65;99067.05;2113813;84;21032;-83
2022/10/14 08:16:57;;;;;;;52.62;33.92;;;;;;;12.29;78.77;99074.09;2114013;84;20960;-84
2022/10/14 08:19:58;;;;;;;58.78;36.80;;;;;;;12.40;78.58;99072.00;2113554;84;21000;-84
2022/10/14 08:22:58;;;;;;;58.70;37.85;;;;;;;12.44;78.37;99070.29;2114220;84;20947;-85
2022/10/14 08:25:58;;;;;;;67.42;37.38;;;;;;;12.58;78.32;99066.46;2114953;84;20959;-83
2022/10/14 08:29:01;;;;;;;58.45;37.75;;;;;;;12.78;78.12;99071.84;2084422;84;21264;-84
2022/10/14 08:32:01;;;;;;;59.05;37.30;;;;;;;12.97;77.85;99063.22;2113904;84;21007;-84
2022/10/14 08:35:02;;;;;;;54.63;37.15;;;;;;;13.07;77.05;99063.31;2113746;84;20975;-83
2022/10/14 08:38:02;;;;;;;55.38;36.68;;;;;;;13.23;76.62;99068.67;2114086;84;21019;-83
2022/10/14 08:41:02;;;;;;;63.83;37.38;;;;;;;13.35;76.44;99061.73;2114295;84;21414;-84
2022/10/14 08:44:03;;;;;;;57.78;36.45;;;;;;;13.45;76.35;99063.95;2114477;84;21434;-84
2022/10/14 08:47:03;;;;;;;51.40;35.68;;;;;;;13.56;76.13;99060.06;2115141;84;20980;-84
2022/10/14 08:50:04;;;;;;;54.53;36.28;;;;;;;13.55;76.27;99059.19;2114609;84;20979;-84
2022/10/14 08:53:04;;;;;;;78.92;43.42;;;;;;;13.48;76.03;99061.78;2114770;84;21332;-84
2022/10/14 08:56:04;;;;;;;79.53;37.70;;;;;;;13.47;76.40;99055.66;2113949;84;20976;-80
2022/10/14 08:59:05;;;;;;;55.75;36.53;;;;;;;13.57;76.53;99058.75;2114566;84;20964;-82
2022/10/14 09:02:05;;;;;;;128.80;42.30;;;;;;;13.72;76.31;99052.67;2115324;84;20983;-79
2022/10/14 09:05:06;;;;;;;57.38;35.20;;;;;;;13.89;76.01;99057.99;2114830;84;21662;-82
2022/10/14 09:08:07;;;;;;;61.73;37.70;;;;;;;14.05;75.70;99058.89;2114656;84;21332;-81
2022/10/14 09:11:06;;;;;;;54.90;35.75;;;;;;;14.14;75.39;99058.47;2114676;84;20992;-81
2022/10/14 09:14:07;;;;;;;55.45;36.23;;;;;;;14.28;75.12;99055.84;2115082;84;20971;-83
2022/10/14 09:17:07;;;;;;;77.37;38.02;;;;;;;14.44;75.16;99059.38;2113650;84;21337;-80
2022/10/14 09:20:08;;;;;;;54.55;36.83;;;;;;;14.53;74.58;99062.88;2113431;84;20975;-82
2022/10/14 09:23:09;;;;;;;61.92;37.98;;;;;;;14.54;74.12;99062.00;2113261;84;20959;-81
2022/10/14 09:26:08;;;;;;;146.37;42.43;;;;;;;14.49;74.42;99063.76;2113903;84;20991;-81
2022/10/14 09:29:09;;;;;;;56.28;37.35;;;;;;;14.49;74.69;99063.76;2114325;84;20959;-80
2022/10/14 09:32:10;;;;;;;52.60;36.70;;;;;;;14.46;74.68;99062.45;2113622;84;21020;-81
2022/10/14 09:35:10;;;;;;;76.65;38.05;;;;;;;14.38;74.77;99061.98;2114491;84;20924;-80
2022/10/14 09:38:10;;;;;;;52.00;36.60;;;;;;;14.25;75.09;99063.28;2114043;84;20964;-81
2022/10/14 09:41:10;;;;;;;56.18;39.42;;;;;;;14.14;75.18;99060.22;2113486;84;20956;-80
2022/10/14 09:44:11;;;;;;;62.25;38.00;;;;;;;14.07;75.54;99063.70;2113553;84;21046;-80
2022/10/14 09:47:11;;;;;;;63.85;39.73;;;;;;;13.97;75.83;99062.38;2113547;84;20932;-80
2022/10/14 09:50:12;;;;;;;58.42;37.55;;;;;;;13.88;76.35;99058.87;2112466;84;20963;-80
2022/10/14 09:53:12;;;;;;;57.95;38.90;;;;;;;13.83;76.95;99061.45;2113129;84;20955;-79
2022/10/14 09:56:13;;;;;;;59.15;38.65;;;;;;;13.82;77.44;99060.13;2113027;84;21664;-81
2022/10/14 09:59:13;;;;;;;64.32;36.93;;;;;;;13.84;77.59;99056.64;2113005;84;21359;-80
2022/10/14 10:02:13;;;;;;;482.65;59.15;;;;;;;13.89;77.54;99055.37;2113775;84;21027;-80
2022/10/14 10:05:14;;;;;;;63.60;37.65;;;;;;;13.95;77.66;99059.31;2114366;84;20939;-79
2022/10/14 10:08:14;;;;;;;54.05;38.38;;;;;;;14.02;77.64;99060.64;2114268;84;21421;-79
2022/10/14 10:11:17;;;;;;;77.65;39.13;;;;;;;14.14;77.34;99061.53;2114799;84;21007;-80
2022/10/14 10:14:16;;;;;;;56.85;40.12;;;;;;;14.34;77.40;99057.16;2114762;84;20983;-80
2022/10/14 10:17:15;;;;;;;118.10;40.40;;;;;;;14.53;76.51;99049.75;2114527;84;21301;-82
2022/10/14 10:20:16;;;;;;;58.17;40.33;;;;;;;14.69;76.97;99040.09;2114254;84;20948;-81
2022/10/14 10:23:16;;;;;;;60.48;39.13;;;;;;;14.83;75.67;99039.66;2115319;84;20987;-80
2022/10/14 10:26:17;;;;;;;72.37;39.35;;;;;;;14.97;75.51;99035.25;2114267;84;21070;-80
2022/10/14 10:29:17;;;;;;;60.48;38.53;;;;;;;15.14;74.57;99043.52;2114228;84;21003;-79
2022/10/14 10:32:17;;;;;;;57.23;39.30;;;;;;;15.36;74.19;99048.27;2114935;84;21343;-80
2022/10/14 10:35:18;;;;;;;56.35;40.28;;;;;;;15.52;73.97;99036.79;2113963;84;20987;-81
2022/10/14 10:38:21;;;;;;;58.68;37.55;;;;;;;15.78;73.64;99036.27;2113759;84;20959;-81
2022/10/14 10:41:22;;;;;;;50.17;36.70;;;;;;;16.17;72.78;99034.25;2113974;84;21310;-81
2022/10/14 10:44:23;;;;;;;46.50;32.45;;;;;;;16.50;72.44;99023.91;2114142;84;20983;-81
2022/10/14 10:47:23;;;;;;;64.90;32.80;;;;;;;16.62;70.81;99020.28;2114726;84;20984;-80
2022/10/14 10:50:23;;;;;;;55.80;34.38;;;;;;;16.71;70.64;99021.55;2114394;84;21368;-82
2022/10/14 10:53:23;;;;;;;71.87;37.38;;;;;;;17.00;70.21;99018.16;2114341;84;20988;-79
2022/10/14 10:56:24;;;;;;;42.80;33.15;;;;;;;17.16;69.77;99011.80;2113691;84;21019;-81
2022/10/14 10:59:24;;;;;;;46.90;33.15;;;;;;;17.32;68.47;99011.62;2113722;84;20983;-81
2022/10/14 11:02:25;;;;;;;54.20;32.73;;;;;;;17.24;68.36;99006.44;2113980;84;21030;-80
2022/10/14 11:05:25;;;;;;;41.68;32.63;;;;;;;17.24;68.60;98999.84;2113399;84;21659;-82
2022/10/14 11:12:02;;;;;;;40.78;31.23;;;;;;;17.43;67.44;98984.23;2114252;84;20936;-79
2022/10/14 11:15:03;;;;;;;45.28;30.65;;;;;;;17.40;67.34;98984.72;2114373;84;20951;-80
2022/10/14 11:18:03;;;;;;;41.85;27.17;;;;;;;17.52;67.02;98992.47;2114448;84;21047;-80
2022/10/14 11:21:04;;;;;;;43.45;29.80;;;;;;;17.58;66.42;98994.16;2114456;84;20966;-80
2022/10/14 11:24:04;;;;;;;34.20;25.08;;;;;;;17.63;66.32;98987.04;2114578;84;21570;-79
2022/10/14 11:27:07;;;;;;;40.52;28.67;;;;;;;17.69;65.23;98985.67;2114391;84;20955;-78
2022/10/14 11:30:07;;;;;;;40.92;30.40;;;;;;;17.48;65.38;98985.05;2113969;84;20975;-78
2022/10/14 11:33:05;;;;;;;36.68;26.93;;;;;;;17.32;66.11;98982.59;2113223;84;21003;-78
2022/10/14 11:36:06;;;;;;;37.20;26.40;;;;;;;17.36;66.55;98969.38;2113355;84;21371;-80
2022/10/14 11:39:06;;;;;;;36.75;25.92;;;;;;;17.50;66.67;98966.55;2113972;84;20936;-81
2022/10/14 11:42:12;;;;;;;36.33;25.15;;;;;;;17.65;66.06;98968.09;2114228;84;21363;-80
2022/10/14 11:45:07;;;;;;;52.40;27.17;;;;;;;17.57;65.26;98958.97;2114168;84;20967;-80
2022/10/14 11:48:07;;;;;;;42.05;25.77;;;;;;;17.45;66.39;98960.46;2114927;84;21050;-80
2022/10/14 11:51:08;;;;;;;30.20;23.15;;;;;;;17.45;66.50;98956.50;2115032;84;20992;-81
2022/10/14 11:54:10;;;;;;;30.20;23.47;;;;;;;17.63;66.22;98960.20;2114625;84;21015;-81
2022/10/14 11:57:09;;;;;;;92.97;26.68;;;;;;;17.88;65.71;98958.09;2113960;84;20976;-81
2022/10/14 12:00:09;;;;;;;32.08;25.23;;;;;;;17.99;64.97;98948.23;2114704;84;20971;-81
2022/10/14 12:03:10;;;;;;;36.55;25.30;;;;;;;18.05;65.51;98945.48;2114083;84;21043;-82
2022/10/14 12:06:11;;;;;;;35.50;24.10;;;;;;;18.14;65.10;98953.70;2113765;84;20960;-80
2022/10/14 12:09:12;;;;;;;31.40;23.67;;;;;;;18.09;64.80;98946.30;2113691;84;21047;-80
2022/10/14 12:12:11;;;;;;;30.48;22.52;;;;;;;17.89;64.02;98945.76;2112745;84;20992;-82
2022/10/14 12:15:11;;;;;;;36.73;23.80;;;;;;;17.73;64.91;98938.53;2112571;84;20940;-80
2022/10/14 12:18:12;;;;;;;31.77;23.67;;;;;;;17.69;64.93;98939.02;2112796;84;21012;-79
2022/10/14 12:21:13;;;;;;;95.12;26.10;;;;;;;17.90;64.96;98940.45;2112145;84;21443;-80
2022/10/14 12:24:13;;;;;;;32.40;22.90;;;;;;;18.10;64.73;98933.07;2112062;84;21015;-80
2022/10/14 12:27:13;;;;;;;288.00;45.80;;;;;;;18.30;64.40;98930.56;2112404;84;21008;-81
2022/10/14 12:30:14;;;;;;;43.00;23.60;;;;;;;18.52;63.76;98919.15;2112081;84;20960;-79
2022/10/14 12:33:16;;;;;;;28.87;20.20;;;;;;;18.73;63.37;98918.77;2112271;84;20956;-78
2022/10/14 12:36:14;;;;;;;34.18;18.67;;;;;;;18.74;62.05;98915.22;2111795;84;21043;-81
2022/10/14 12:39:14;;;;;;;39.55;20.40;;;;;;;18.75;61.37;98919.16;2112186;84;20979;-81
2022/10/14 12:42:15;;;;;;;25.45;19.40;;;;;;;18.73;61.61;98920.09;2112455;84;20983;-81
2022/10/14 12:45:15;;;;;;;29.80;20.15;;;;;;;18.62;61.70;98917.66;2112652;84;21019;-81
2022/10/14 12:48:18;;;;;;;24.52;18.62;;;;;;;18.42;61.70;98926.37;2113349;84;20952;-81
2022/10/14 12:51:16;;;;;;;39.40;21.87;;;;;;;18.26;61.98;98919.17;2113964;84;20987;-81
2022/10/14 12:54:17;;;;;;;25.62;19.12;;;;;;;18.14;62.61;98920.69;2114062;84;21008;-84
2022/10/14 12:57:17;;;;;;;28.70;18.62;;;;;;;17.95;61.97;98917.48;2114206;83;20976;-84
2022/10/14 13:00:17;;;;;;;23.35;17.52;;;;;;;17.72;62.02;98919.17;2114772;84;21003;-84
2022/10/14 13:03:18;;;;;;;25.62;18.17;;;;;;;17.57;62.61;98916.73;2114407;84;20999;-84
2022/10/14 13:06:18;;;;;;;21.23;16.82;;;;;;;17.50;63.34;98915.09;2113997;84;20956;-83
2022/10/14 13:09:19;;;;;;;24.55;17.27;;;;;;;17.47;63.32;98912.49;2113747;84;20983;-83
2022/10/14 13:12:19;;;;;;;25.62;17.77;;;;;;;17.45;63.42;98912.96;2113849;84;20963;-83
2022/10/14 13:15:19;;;;;;;23.65;16.97;;;;;;;17.57;63.76;98914.55;2113909;84;21367;-83
2022/10/14 13:18:20;;;;;;;21.05;18.05;;;;;;;17.70;62.77;98917.01;2113667;84;20960;-84
2022/10/14 13:21:20;;;;;;;28.75;17.95;;;;;;;17.78;62.54;98912.48;2113610;84;21012;-83
2022/10/14 13:24:21;;;;;;;24.80;17.17;;;;;;;17.82;62.53;98911.53;2113017;84;20959;-85
2022/10/14 13:27:21;;;;;;;24.10;16.85;;;;;;;17.72;62.78;98909.06;2113031;84;21021;-83
2022/10/14 13:30:22;;;;;;;27.20;17.60;;;;;;;17.62;62.50;98905.66;2112855;84;20967;-83
2022/10/14 13:33:22;;;;;;;23.73;16.95;;;;;;;17.51;62.45;98902.31;2113441;84;21456;-84
2022/10/14 13:36:22;;;;;;;31.57;18.55;;;;;;;17.49;62.78;98908.06;2113736;84;21375;-83
2022/10/14 13:39:23;;;;;;;30.32;18.20;;;;;;;17.50;62.75;98899.25;2114043;84;20968;-80
2022/10/14 13:42:23;;;;;;;28.55;18.12;;;;;;;17.61;62.34;98901.73;2115487;84;21035;-84
2022/10/14 13:45:24;;;;;;;38.15;20.77;;;;;;;17.68;62.48;98904.28;2115275;84;21301;-83
2022/10/14 13:48:24;;;;;;;27.17;19.37;;;;;;;17.67;62.48;98891.98;2114849;84;21422;-84
2022/10/14 13:51:24;;;;;;;27.20;18.77;;;;;;;17.65;62.76;98899.02;2114063;84;20992;-84
2022/10/14 13:54:25;;;;;;;27.55;18.05;;;;;;;17.62;62.99;98895.10;2113850;84;20947;-84
2022/10/14 13:57:25;;;;;;;25.43;16.93;;;;;;;17.61;63.06;98892.04;2121091;84;21000;-82